This is the latest recevied weather packets stored in our database for station/object K2RMB. If no packets are shown the sender has not sent any weather packets the latest 10 day(s).
| Time | Temp. | Humidity | Pressure | Rain* | Wind** | Luminosity | Snow |
|---|---|---|---|---|---|---|---|
| 1777296622 | 14.44° C | 47% | 1025.5 hPa | 0 mm | - | 537 W/m² | - |
| 1777296291 | 13.89° C | 45% | 1025.5 hPa | 0 mm | - | 517 W/m² | - |
| 1777295987 | 13.33° C | 49% | 1025.5 hPa | 0 mm | - | 498 W/m² | - |
| 1777295685 | 13.33° C | 49% | 1025.5 hPa | 0 mm | - | 485 W/m² | - |
| 1777295383 | 13.89° C | 49% | 1025.5 hPa | 0 mm | - | 468 W/m² | - |
| 1777295080 | 15° C | 40% | 1025.5 hPa | 0 mm | - | 452 W/m² | - |
| 1777294777 | 13.89° C | 46% | 1025.5 hPa | 0 mm | - | 434 W/m² | - |
| 1777294472 | 13.33° C | 47% | 1025.8 hPa | 0 mm | - | 417 W/m² | - |
| 1777294169 | 12.22° C | 50% | 1025.5 hPa | 0 mm | - | 403 W/m² | - |
| 1777293866 | 12.22° C | 52% | 1025.5 hPa | 0 mm | - | 383 W/m² | - |
| 1777293561 | 13.33° C | 46% | 1025.5 hPa | 0 mm | - | 367 W/m² | - |
| 1777293257 | 12.78° C | 47% | 1025.5 hPa | 0 mm | - | 348 W/m² | - |
| 1777292956 | 12.22° C | 50% | 1025.5 hPa | 0 mm | - | 330 W/m² | - |
| 1777292652 | 13.33° C | 48% | 1025.5 hPa | 0 mm | - | 319 W/m² | - |
| 1777292348 | 12.22° C | 50% | 1025.5 hPa | 0 mm | - | 218 W/m² | - |
| 1777292044 | 11.11° C | 50% | 1025.5 hPa | 0 mm | - | 278 W/m² | - |
| 1777291741 | 11.67° C | 51% | 1025.8 hPa | 0 mm | - | 108 W/m² | - |
| 1777291438 | 11.67° C | 47% | 1025.5 hPa | 0 mm | - | 240 W/m² | - |
| 1777291135 | 10° C | 52% | 1025.8 hPa | 0 mm | - | 224 W/m² | - |
| 1777290831 | 8.89° C | 58% | 1025.5 hPa | 0 mm | - | 207 W/m² | - |
| 1777290528 | 7.78° C | 60% | 1025.5 hPa | 0 mm | - | 182 W/m² | - |
| 1777290224 | 6.67° C | 67% | 1025.5 hPa | 0 mm | - | 160 W/m² | - |
| 1777289921 | 6.11° C | 71% | 1025.5 hPa | 0 mm | - | 133 W/m² | - |
| 1777289617 | 5.56° C | 73% | 1025.5 hPa | 0 mm | - | 82 W/m² | - |
| 1777289313 | 5° C | 73% | 1025.5 hPa | 0 mm | - | 49 W/m² | - |
* Rain latest hour (hover to see other rain measurements)
** Current wind speed in m/s (hover to see current wind gust speed)